Time;durP1;ratioP1;P1;durP2;ratioP2;P2;SDS_P1;SDS_P2;PMS_P1;PMS_P2;Temp;Humidity;BMP_temperature;BMP_pressure;BME280_temperature;BME280_humidity;BME280_pressure;Samples;Min_cycle;Max_cycle;Signal;HPM_P1;HPM_P2
2022/04/04 00:01:32;;;;;;;;;3.50;3.50;;;;;;;;2;234067395;234067395;-85
2022/04/04 00:10:33;;;;;;;;;11.50;11.50;;;;;;;;2;279079419;279079419;-85
2022/04/04 00:18:49;;;;;;;;;6.50;6.50;;;;;;;;2;234070341;234070341;-86
2022/04/04 00:27:50;;;;;;;;;9.50;6.00;;;;;;;;2;279081471;279081471;-86
2022/04/04 00:36:07;;;;;;;;;12.50;9.50;;;;;;;;2;234066226;234066226;-84
2022/04/04 00:45:07;;;;;;;;;11.50;7.50;;;;;;;;2;279083073;279083073;-85
2022/04/04 00:53:24;;;;;;;;;5.00;5.00;;;;;;;;2;234068598;234068598;-85
2022/04/04 01:02:25;;;;;;;;;8.50;7.00;;;;;;;;2;279083968;279083968;-84
2022/04/04 01:10:41;;;;;;;;;7.50;7.50;;;;;;;;2;234070880;234070880;-85
2022/04/04 01:19:41;;;;;;;;;5.50;5.50;;;;;;;;2;279076927;279076927;-85
2022/04/04 01:27:57;;;;;;;;;18.00;6.00;;;;;;;;2;234066801;234066801;-85
2022/04/04 01:36:58;;;;;;;;;6.00;6.00;;;;;;;;2;279081366;279081366;-86
2022/04/04 01:45:14;;;;;;;;;7.50;7.50;;;;;;;;2;234067731;234067731;-84
2022/04/04 01:54:14;;;;;;;;;5.50;5.50;;;;;;;;2;279082469;279082469;-85
2022/04/04 02:02:30;;;;;;;;;11.50;11.50;;;;;;;;2;234068002;234068002;-86
2022/04/04 02:11:30;;;;;;;;;18.00;7.00;;;;;;;;2;279077989;279077989;-85
2022/04/04 02:19:47;;;;;;;;;5.00;5.00;;;;;;;;2;234070123;234070123;-84
2022/04/04 02:28:47;;;;;;;;;3.00;3.00;;;;;;;;2;279080640;279080640;-85
2022/04/04 02:37:03;;;;;;;;;7.00;7.00;;;;;;;;2;234069125;234069125;-84
2022/04/04 02:46:03;;;;;;;;;14.50;9.00;;;;;;;;2;279080178;279080178;-84
2022/04/04 02:54:19;;;;;;;;;5.50;5.50;;;;;;;;2;234067377;234067377;-86
2022/04/04 03:03:19;;;;;;;;;5.50;5.50;;;;;;;;2;279079717;279079717;-86
2022/04/04 03:11:35;;;;;;;;;6.50;6.50;;;;;;;;2;234067603;234067603;-85
2022/04/04 03:20:35;;;;;;;;;2.00;2.00;;;;;;;;2;279081575;279081575;-86
2022/04/04 03:28:51;;;;;;;;;6.50;2.50;;;;;;;;2;234070202;234070202;-84
2022/04/04 03:37:52;;;;;;;;;3.50;3.50;;;;;;;;2;279078581;279078581;-84
2022/04/04 03:46:08;;;;;;;;;6.50;6.50;;;;;;;;2;234069182;234069182;-83
2022/04/04 03:55:09;;;;;;;;;4.50;4.50;;;;;;;;2;279080818;279080818;-86
2022/04/04 04:03:24;;;;;;;;;2.00;2.00;;;;;;;;2;234069295;234069295;-85
2022/04/04 04:12:25;;;;;;;;;4.50;4.50;;;;;;;;2;279081615;279081615;-85
2022/04/04 04:20:40;;;;;;;;;5.00;5.00;;;;;;;;2;234069638;234069638;-85
2022/04/04 04:29:41;;;;;;;;;2.00;2.00;;;;;;;;2;279081087;279081087;-85
2022/04/04 04:37:56;;;;;;;;;5.00;5.00;;;;;;;;2;234071241;234071241;-86
2022/04/04 04:46:57;;;;;;;;;6.00;6.00;;;;;;;;2;279079824;279079824;-83
2022/04/04 04:55:13;;;;;;;;;6.00;6.00;;;;;;;;2;234068743;234068743;-83
2022/04/04 05:04:14;;;;;;;;;12.00;6.50;;;;;;;;2;279081441;279081441;-85
2022/04/04 05:12:29;;;;;;;;;8.50;6.00;;;;;;;;2;234068642;234068642;-85
2022/04/04 05:21:30;;;;;;;;;9.00;9.00;;;;;;;;2;279085619;279085619;-86
2022/04/04 05:29:45;;;;;;;;;33.00;6.00;;;;;;;;2;234068398;234068398;-86
2022/04/04 05:38:49;;;;;;;;;30.50;6.50;;;;;;;;2;279084492;279084492;-84
2022/04/04 05:47:04;;;;;;;;;4.50;4.50;;;;;;;;2;234076066;234076066;-84
2022/04/04 05:56:05;;;;;;;;;16.50;11.00;;;;;;;;2;279080724;279080724;-82
2022/04/04 06:04:20;;;;;;;;;10.00;10.00;;;;;;;;2;234074620;234074620;-83
2022/04/04 06:13:21;;;;;;;;;7.50;3.50;;;;;;;;2;279079645;279079645;-84
2022/04/04 06:21:36;;;;;;;;;10.50;10.50;;;;;;;;2;234071783;234071783;-86
2022/04/04 06:30:37;;;;;;;;;7.00;7.00;;;;;;;;2;279079484;279079484;-84
2022/04/04 06:38:53;;;;;;;;;6.50;6.50;;;;;;;;2;234069593;234069593;-85
2022/04/04 06:47:53;;;;;;;;;4.50;4.50;;;;;;;;2;279090477;279090477;-86
2022/04/04 06:56:08;;;;;;;;;4.50;4.50;;;;;;;;2;234074622;234074622;-94
2022/04/04 07:05:09;;;;;;;;;8.00;8.00;;;;;;;;2;279082175;279082175;-92
2022/04/04 07:13:24;;;;;;;;;8.50;8.50;;;;;;;;2;234064616;234064616;-93
2022/04/04 07:22:25;;;;;;;;;9.00;9.00;;;;;;;;2;279078797;279078797;-92
2022/04/04 07:30:41;;;;;;;;;5.50;5.50;;;;;;;;2;234066170;234066170;-94
2022/04/04 07:39:41;;;;;;;;;8.50;8.50;;;;;;;;2;279081265;279081265;-93
2022/04/04 07:47:57;;;;;;;;;8.50;6.50;;;;;;;;2;234068870;234068870;-95
2022/04/04 07:56:58;;;;;;;;;6.00;6.00;;;;;;;;2;279080487;279080487;-96
2022/04/04 08:05:13;;;;;;;;;6.00;6.00;;;;;;;;2;234062594;234062594;-95
2022/04/04 08:14:14;;;;;;;;;6.00;6.00;;;;;;;;2;279078473;279078473;-95
2022/04/04 08:22:29;;;;;;;;;5.00;5.00;;;;;;;;2;234074530;234074530;-95
2022/04/04 08:31:30;;;;;;;;;14.00;2.00;;;;;;;;2;279074620;279074620;-95
2022/04/04 08:39:47;;;;;;;;;4.00;4.00;;;;;;;;2;234064696;234064696;-96
2022/04/04 08:48:48;;;;;;;;;16.50;5.00;;;;;;;;2;279075475;279075475;-96
2022/04/04 08:57:03;;;;;;;;;4.50;4.50;;;;;;;;2;234062575;234062575;-96
2022/04/04 09:06:05;;;;;;;;;1.00;1.00;;;;;;;;2;279073590;279073590;-96
2022/04/04 09:14:21;;;;;;;;;11.50;8.00;;;;;;;;2;234060456;234060456;-96
2022/04/04 09:23:22;;;;;;;;;3.00;3.00;;;;;;;;2;279077086;279077086;-96
2022/04/04 09:35:08;;;;;;;;;9.50;4.00;;;;;;;;2;234065198;234065198;-94
2022/04/04 09:44:11;;;;;;;;;5.50;3.00;;;;;;;;2;279080410;279080410;-96
2022/04/04 09:52:27;;;;;;;;;2.50;2.50;;;;;;;;2;234068541;234068541;-94
2022/04/04 10:01:29;;;;;;;;;0.50;0.50;;;;;;;;2;279081511;279081511;-91
2022/04/04 10:09:45;;;;;;;;;6.00;2.00;;;;;;;;2;234062742;234062742;-96
2022/04/04 10:18:46;;;;;;;;;12.00;0.00;;;;;;;;2;279065039;279065039;-95
2022/04/04 10:27:02;;;;;;;;;0.00;0.00;;;;;;;;2;234060099;234060099;-96
2022/04/04 10:36:15;;;;;;;;;0.00;0.00;;;;;;;;2;279072900;279072900;-96
2022/04/04 10:53:54;;;;;;;;;3.00;3.00;;;;;;;;2;279107795;279107795;-96
2022/04/04 11:02:10;;;;;;;;;4.50;0.50;;;;;;;;2;234069508;234069508;-96
2022/04/04 11:11:19;;;;;;;;;2.50;2.50;;;;;;;;2;279084165;279084165;-90
2022/04/04 11:19:48;;;;;;;;;3.50;3.50;;;;;;;;2;234070463;234070463;-93
2022/04/04 11:28:50;;;;;;;;;2.00;2.00;;;;;;;;2;279081760;279081760;-89
2022/04/04 11:37:06;;;;;;;;;3.50;3.50;;;;;;;;2;234069706;234069706;-91
2022/04/04 11:46:19;;;;;;;;;3.00;3.00;;;;;;;;2;279087365;279087365;-90
2022/04/04 11:54:39;;;;;;;;;2.00;2.00;;;;;;;;2;234069952;234069952;-88
2022/04/04 12:03:43;;;;;;;;;4.00;4.00;;;;;;;;2;279083854;279083854;-85
2022/04/04 12:12:13;;;;;;;;;3.50;3.50;;;;;;;;2;234069286;234069286;-86
2022/04/04 12:21:14;;;;;;;;;4.00;4.00;;;;;;;;2;279086006;279086006;-86
2022/04/04 12:29:29;;;;;;;;;1.50;1.50;;;;;;;;2;234077396;234077396;-87
2022/04/04 12:38:31;;;;;;;;;4.00;4.00;;;;;;;;2;279082830;279082830;-88
2022/04/04 12:46:46;;;;;;;;;3.50;3.50;;;;;;;;2;234073208;234073208;-89
2022/04/04 12:56:13;;;;;;;;;15.50;4.50;;;;;;;;2;279080196;279080196;-89
2022/04/04 13:04:30;;;;;;;;;6.50;3.00;;;;;;;;2;234072630;234072630;-91
2022/04/04 13:13:31;;;;;;;;;12.50;4.50;;;;;;;;2;279080984;279080984;-91
2022/04/04 13:21:50;;;;;;;;;3.00;3.00;;;;;;;;2;234067357;234067357;-91
2022/04/04 13:30:51;;;;;;;;;2.00;2.00;;;;;;;;2;279079459;279079459;-91
2022/04/04 13:39:09;;;;;;;;;7.50;5.50;;;;;;;;2;234072364;234072364;-90
2022/04/04 13:48:09;;;;;;;;;2.00;2.00;;;;;;;;2;279082347;279082347;-90
2022/04/04 13:56:29;;;;;;;;;2.00;2.00;;;;;;;;2;234069575;234069575;-87
2022/04/04 14:05:29;;;;;;;;;5.50;5.50;;;;;;;;2;279084025;279084025;-93
2022/04/04 14:13:46;;;;;;;;;15.50;15.50;;;;;;;;2;234069166;234069166;-89
2022/04/04 14:22:49;;;;;;;;;3.00;3.00;;;;;;;;2;279083777;279083777;-86
2022/04/04 14:31:04;;;;;;;;;7.00;7.00;;;;;;;;2;234076675;234076675;-88
2022/04/04 14:40:05;;;;;;;;;7.50;7.50;;;;;;;;2;279084209;279084209;-86
2022/04/04 14:48:20;;;;;;;;;11.00;11.00;;;;;;;;2;234070967;234070967;-86
2022/04/04 14:57:21;;;;;;;;;9.00;6.50;;;;;;;;2;279080505;279080505;-86
2022/04/04 15:05:37;;;;;;;;;9.00;9.00;;;;;;;;2;234067704;234067704;-86
2022/04/04 15:14:37;;;;;;;;;7.50;7.50;;;;;;;;2;279083233;279083233;-87
2022/04/04 15:22:53;;;;;;;;;8.50;4.00;;;;;;;;2;234072631;234072631;-86
2022/04/04 15:31:53;;;;;;;;;16.00;5.00;;;;;;;;2;279084746;279084746;-86
2022/04/04 15:40:09;;;;;;;;;7.50;4.00;;;;;;;;2;234069854;234069854;-83
2022/04/04 15:49:10;;;;;;;;;3.50;3.50;;;;;;;;2;279090526;279090526;-85
2022/04/04 15:57:25;;;;;;;;;6.00;6.00;;;;;;;;2;234072182;234072182;-84
2022/04/04 16:06:28;;;;;;;;;4.00;4.00;;;;;;;;2;279083784;279083784;-85
2022/04/04 16:14:46;;;;;;;;;9.50;9.50;;;;;;;;2;234067276;234067276;-85
2022/04/04 16:23:48;;;;;;;;;12.00;12.00;;;;;;;;2;279084373;279084373;-84
2022/04/04 16:32:03;;;;;;;;;9.50;9.50;;;;;;;;2;234069857;234069857;-84
2022/04/04 16:41:04;;;;;;;;;4.50;4.50;;;;;;;;2;279079185;279079185;-85
2022/04/04 16:49:19;;;;;;;;;17.50;12.50;;;;;;;;2;234070974;234070974;-85
2022/04/04 16:58:20;;;;;;;;;10.00;10.00;;;;;;;;2;279083245;279083245;-86
2022/04/04 17:06:36;;;;;;;;;8.50;8.50;;;;;;;;2;234069873;234069873;-86
2022/04/04 17:15:36;;;;;;;;;7.00;7.00;;;;;;;;2;279079797;279079797;-86
2022/04/04 17:23:52;;;;;;;;;3.00;3.00;;;;;;;;2;234069785;234069785;-86
2022/04/04 17:32:53;;;;;;;;;7.00;7.00;;;;;;;;2;279084679;279084679;-87
2022/04/04 17:41:09;;;;;;;;;14.50;14.50;;;;;;;;2;234070574;234070574;-83
2022/04/04 17:50:10;;;;;;;;;6.00;6.00;;;;;;;;2;279094690;279094690;-85
2022/04/04 17:58:26;;;;;;;;;16.00;12.00;;;;;;;;2;234072190;234072190;-86
2022/04/04 18:07:26;;;;;;;;;8.50;8.50;;;;;;;;2;279082271;279082271;-87
2022/04/04 18:15:42;;;;;;;;;19.00;8.00;;;;;;;;2;234070801;234070801;-85
2022/04/04 18:24:42;;;;;;;;;8.50;8.50;;;;;;;;2;279082078;279082078;-86
2022/04/04 18:32:59;;;;;;;;;11.50;11.50;;;;;;;;2;234071954;234071954;-90
2022/04/04 18:42:00;;;;;;;;;12.00;12.00;;;;;;;;2;279088245;279088245;-87
2022/04/04 18:50:19;;;;;;;;;10.50;10.50;;;;;;;;2;234077339;234077339;-87
2022/04/04 18:59:20;;;;;;;;;9.50;9.50;;;;;;;;2;279090648;279090648;-84
2022/04/04 19:07:35;;;;;;;;;14.00;14.00;;;;;;;;2;234071246;234071246;-86
2022/04/04 19:16:36;;;;;;;;;11.50;11.50;;;;;;;;2;279083504;279083504;-86
2022/04/04 19:24:52;;;;;;;;;9.00;9.00;;;;;;;;2;234071366;234071366;-86
2022/04/04 19:33:52;;;;;;;;;12.50;12.50;;;;;;;;2;279084948;279084948;-87
2022/04/04 19:42:09;;;;;;;;;16.00;12.00;;;;;;;;2;234068615;234068615;-83
2022/04/04 19:51:10;;;;;;;;;14.50;12.50;;;;;;;;2;279083318;279083318;-86
2022/04/04 19:59:25;;;;;;;;;11.50;11.50;;;;;;;;2;234068422;234068422;-85
2022/04/04 20:08:26;;;;;;;;;10.00;10.00;;;;;;;;2;279082466;279082466;-87
2022/04/04 20:16:41;;;;;;;;;24.00;15.00;;;;;;;;2;234071237;234071237;-87
2022/04/04 20:25:42;;;;;;;;;12.50;12.50;;;;;;;;2;279084497;279084497;-87
2022/04/04 20:33:57;;;;;;;;;5.00;0.50;;;;;;;;2;234071140;234071140;-87
2022/04/04 20:42:58;;;;;;;;;14.00;14.00;;;;;;;;2;279084478;279084478;-88
2022/04/04 20:51:14;;;;;;;;;16.50;7.50;;;;;;;;2;234071590;234071590;-87
2022/04/04 21:00:17;;;;;;;;;11.50;11.50;;;;;;;;2;279082215;279082215;-80
2022/04/04 21:08:32;;;;;;;;;9.50;9.50;;;;;;;;2;234069711;234069711;-86
2022/04/04 21:17:33;;;;;;;;;13.50;9.50;;;;;;;;2;279084256;279084256;-84
2022/04/04 21:25:48;;;;;;;;;11.50;11.50;;;;;;;;2;234071559;234071559;-85
2022/04/04 21:34:49;;;;;;;;;9.00;9.00;;;;;;;;2;279090222;279090222;-86
2022/04/04 21:43:05;;;;;;;;;8.50;5.50;;;;;;;;2;234068686;234068686;-84
2022/04/04 21:52:06;;;;;;;;;7.00;7.00;;;;;;;;2;279082008;279082008;-83
2022/04/04 22:00:24;;;;;;;;;16.00;7.50;;;;;;;;2;234071144;234071144;-92
2022/04/04 22:09:24;;;;;;;;;14.00;14.00;;;;;;;;2;279083261;279083261;-89
2022/04/04 22:17:41;;;;;;;;;15.00;11.50;;;;;;;;2;234070954;234070954;-91
2022/04/04 22:26:41;;;;;;;;;10.50;10.50;;;;;;;;2;279081223;279081223;-89
2022/04/04 22:34:56;;;;;;;;;12.00;12.00;;;;;;;;2;234068737;234068737;-90
2022/04/04 22:43:58;;;;;;;;;17.50;5.50;;;;;;;;2;279083586;279083586;-91
2022/04/04 22:52:13;;;;;;;;;7.50;7.50;;;;;;;;2;234068985;234068985;-88
2022/04/04 23:01:13;;;;;;;;;7.50;7.50;;;;;;;;2;279081972;279081972;-90
2022/04/04 23:09:29;;;;;;;;;16.00;16.00;;;;;;;;2;234068814;234068814;-88
2022/04/04 23:18:29;;;;;;;;;10.50;10.50;;;;;;;;2;279082353;279082353;-89
2022/04/04 23:26:45;;;;;;;;;9.00;9.00;;;;;;;;2;234069711;234069711;-89
2022/04/04 23:35:45;;;;;;;;;6.00;6.00;;;;;;;;2;279082381;279082381;-89
2022/04/04 23:44:01;;;;;;;;;14.00;14.00;;;;;;;;2;234067694;234067694;-89
2022/04/04 23:53:01;;;;;;;;;12.00;10.50;;;;;;;;2;279080898;279080898;-89
